Time;durP1;ratioP1;P1;durP2;ratioP2;P2;SDS_P1;SDS_P2;PMS_P1;PMS_P2;Temp;Humidity;BMP_temperature;BMP_pressure;BME280_temperature;BME280_humidity;BME280_pressure;Samples;Min_cycle;Max_cycle;Signal;HPM_P1;HPM_P2
2022/03/26 00:00:50;;;;;;;49.05;23.77;;;;;;;7.24;nan;100420.53;5076144;28;20068;-76
2022/03/26 00:03:18;;;;;;;51.00;23.92;;;;;;;7.21;nan;100421.53;5075412;28;20043;-76
2022/03/26 00:05:46;;;;;;;50.65;24.90;;;;;;;7.18;nan;100415.38;5075887;28;20048;-75
2022/03/26 00:08:15;;;;;;;51.97;23.83;;;;;;;7.20;nan;100406.34;5076021;28;20601;-76
2022/03/26 00:10:42;;;;;;;49.58;23.98;;;;;;;7.12;nan;100416.44;5076093;28;20458;-76
2022/03/26 00:13:10;;;;;;;47.10;24.38;;;;;;;7.25;nan;100416.91;5076019;28;20445;-76
2022/03/26 00:15:38;;;;;;;48.60;25.42;;;;;;;7.29;nan;100410.50;5075405;28;20045;-76
2022/03/26 00:18:06;;;;;;;51.55;24.88;;;;;;;7.28;nan;100411.44;5075205;28;20060;-76
2022/03/26 00:20:34;;;;;;;50.60;25.70;;;;;;;7.40;nan;100410.16;5075511;28;20040;-76
2022/03/26 00:23:02;;;;;;;52.97;26.48;;;;;;;7.43;nan;100403.81;5075902;28;20395;-75
2022/03/26 00:25:31;;;;;;;48.28;24.92;;;;;;;7.41;nan;100405.69;5075631;28;20044;-76
2022/03/26 00:27:59;;;;;;;49.97;25.67;;;;;;;7.36;nan;100403.13;5075706;28;20049;-76
2022/03/26 00:30:27;;;;;;;44.92;24.92;;;;;;;7.34;nan;100403.19;5075740;28;20045;-75
2022/03/26 00:32:54;;;;;;;50.35;25.48;;;;;;;7.34;nan;100400.50;5075595;28;20556;-76
2022/03/26 00:35:22;;;;;;;46.90;24.75;;;;;;;7.34;nan;100396.94;5075259;28;20131;-76
2022/03/26 00:37:52;;;;;;;50.70;24.95;;;;;;;7.36;nan;100395.06;5075610;28;20446;-76
2022/03/26 00:40:20;;;;;;;54.78;25.70;;;;;;;7.35;nan;100386.16;5074712;28;20056;-76
2022/03/26 00:42:49;;;;;;;47.55;24.73;;;;;;;7.44;nan;100384.06;5075481;28;20040;-76
2022/03/26 00:45:17;;;;;;;48.00;26.30;;;;;;;7.41;nan;100385.03;5075501;28;20051;-76
2022/03/26 00:47:45;;;;;;;49.80;25.75;;;;;;;7.53;nan;100386.44;5075511;28;20068;-76
2022/03/26 00:50:12;;;;;;;45.00;24.05;;;;;;;7.46;nan;100380.38;5074993;28;20097;-76
2022/03/26 00:52:40;;;;;;;51.75;25.88;;;;;;;7.49;nan;100372.19;5074973;28;20048;-76
2022/03/26 00:55:08;;;;;;;49.40;25.02;;;;;;;7.66;nan;100368.06;5074238;28;20070;-75
2022/03/26 00:57:36;;;;;;;48.15;25.88;;;;;;;7.63;nan;100370.84;5075327;28;20098;-76
2022/03/26 01:00:07;;;;;;;46.80;26.30;;;;;;;7.66;nan;100368.06;5075299;28;20044;-76
2022/03/26 01:02:35;;;;;;;51.60;25.25;;;;;;;7.63;nan;100362.78;5074691;28;20044;-76
2022/03/26 01:05:04;;;;;;;51.17;25.48;;;;;;;7.53;nan;100362.22;5074840;28;20048;-75
2022/03/26 01:07:32;;;;;;;56.13;25.92;;;;;;;7.53;nan;100360.41;5075002;28;20048;-77
2022/03/26 01:09:59;;;;;;;59.80;26.35;;;;;;;7.46;nan;100347.25;5075073;28;20131;-76
2022/03/26 01:12:27;;;;;;;50.08;25.10;;;;;;;7.37;nan;100353.81;5074898;28;20044;-76
2022/03/26 01:14:55;;;;;;;48.75;25.10;;;;;;;7.59;nan;100347.72;5074996;28;20509;-76
2022/03/26 01:17:25;;;;;;;51.55;25.35;;;;;;;7.56;nan;100348.69;5074137;28;20102;-76
2022/03/26 01:19:54;;;;;;;59.60;28.02;;;;;;;7.65;nan;100344.78;5075993;28;20048;-76
2022/03/26 01:22:21;;;;;;;51.13;25.60;;;;;;;7.59;nan;100335.13;5074637;28;20067;-76
2022/03/26 01:24:49;;;;;;;50.65;25.65;;;;;;;7.56;nan;100332.56;5074692;28;20127;-76
2022/03/26 01:27:17;;;;;;;49.35;23.58;;;;;;;7.59;nan;100336.94;5074812;28;20093;-76
2022/03/26 01:29:45;;;;;;;47.65;25.13;;;;;;;7.57;nan;100331.63;5074641;28;20064;-75
2022/03/26 01:32:12;;;;;;;42.97;22.85;;;;;;;7.49;nan;100323.81;5074507;28;20487;-76
2022/03/26 01:34:41;;;;;;;49.22;25.70;;;;;;;7.39;nan;100320.59;5074427;28;20608;-76
2022/03/26 01:37:09;;;;;;;50.33;24.33;;;;;;;7.48;nan;100324.75;5074529;28;20123;-75
2022/03/26 01:39:37;;;;;;;50.67;24.27;;;;;;;7.58;nan;100325.31;5074276;28;20080;-76
2022/03/26 01:42:06;;;;;;;52.20;24.92;;;;;;;7.50;nan;100325.56;5074362;28;20041;-76
2022/03/26 01:44:33;;;;;;;45.03;23.98;;;;;;;7.51;nan;100313.88;5074192;28;20040;-76
2022/03/26 01:47:01;;;;;;;42.67;23.75;;;;;;;7.45;nan;100319.50;5073904;28;20495;-76
2022/03/26 01:49:29;;;;;;;50.28;24.95;;;;;;;7.49;nan;100322.97;5074167;28;20148;-76
2022/03/26 01:51:59;;;;;;;44.97;23.45;;;;;;;7.44;nan;100322.25;5074057;28;20098;-76
2022/03/26 01:54:28;;;;;;;50.33;25.00;;;;;;;7.42;nan;100322.28;5073875;28;20090;-76
2022/03/26 01:56:56;;;;;;;44.90;24.00;;;;;;;7.33;nan;100320.78;5073936;28;20064;-76
2022/03/26 01:59:25;;;;;;;43.67;24.02;;;;;;;7.51;nan;100321.94;5073312;28;20448;-76
2022/03/26 02:01:53;;;;;;;49.10;25.45;;;;;;;7.27;nan;100323.69;5072009;28;20047;-76
2022/03/26 02:04:21;;;;;;;47.40;24.33;;;;;;;7.39;nan;100317.03;5073481;28;20051;-76
2022/03/26 02:06:49;;;;;;;47.67;24.50;;;;;;;7.09;nan;100312.69;5074004;28;20114;-76
2022/03/26 02:09:18;;;;;;;42.42;23.42;;;;;;;7.30;nan;100317.34;5073787;28;20049;-76
2022/03/26 02:11:47;;;;;;;47.50;23.60;;;;;;;7.27;nan;100310.25;5073933;28;20044;-76
2022/03/26 02:14:15;;;;;;;50.45;24.35;;;;;;;7.25;nan;100304.06;5073540;28;20068;-76
2022/03/26 02:16:44;;;;;;;51.83;24.02;;;;;;;7.26;nan;100300.44;5073361;28;20594;-76
2022/03/26 02:19:12;;;;;;;44.90;24.63;;;;;;;7.07;nan;100298.41;5073240;28;20063;-76
2022/03/26 02:21:41;;;;;;;44.65;24.13;;;;;;;7.15;nan;100298.16;5073597;28;20048;-76
2022/03/26 02:24:09;;;;;;;45.90;23.85;;;;;;;7.11;nan;100304.53;5073436;28;20132;-76
2022/03/26 02:26:39;;;;;;;47.58;24.63;;;;;;;7.06;nan;100307.41;5073365;28;20049;-76
2022/03/26 02:29:07;;;;;;;43.30;23.58;;;;;;;7.20;nan;100298.88;5073506;28;20071;-76
2022/03/26 02:31:35;;;;;;;50.55;24.45;;;;;;;7.07;nan;100298.41;5073026;28;20051;-76
2022/03/26 02:34:04;;;;;;;47.10;23.30;;;;;;;7.00;nan;100287.94;5073378;28;20040;-76
2022/03/26 02:36:31;;;;;;;48.08;25.00;;;;;;;7.00;nan;100282.56;5073255;28;20044;-76
2022/03/26 02:39:00;;;;;;;47.83;23.95;;;;;;;7.00;nan;100282.56;5073345;28;20049;-76
2022/03/26 02:41:28;;;;;;;51.58;24.15;;;;;;;7.06;nan;100288.59;5073393;28;20052;-76
2022/03/26 02:43:56;;;;;;;44.15;24.00;;;;;;;7.06;nan;100290.41;5073481;28;20158;-75
2022/03/26 02:46:23;;;;;;;42.15;23.70;;;;;;;7.00;nan;100285.25;5073077;28;20105;-76
2022/03/26 02:48:51;;;;;;;48.78;24.25;;;;;;;7.07;nan;100278.72;5073414;28;20495;-77
2022/03/26 02:51:19;;;;;;;45.13;23.70;;;;;;;7.01;nan;100278.94;5073237;28;20449;-76
2022/03/26 02:53:46;;;;;;;47.83;24.25;;;;;;;6.88;nan;100268.63;5072858;28;20045;-76
2022/03/26 02:56:16;;;;;;;53.42;24.05;;;;;;;6.89;nan;100270.38;5073079;28;20105;-76
2022/03/26 02:58:43;;;;;;;43.97;23.55;;;;;;;6.79;nan;100266.28;5072796;28;20036;-76
2022/03/26 03:01:12;;;;;;;45.83;24.05;;;;;;;6.87;nan;100265.97;5073165;28;20044;-76
2022/03/26 03:03:40;;;;;;;49.42;25.67;;;;;;;6.86;nan;100258.84;5072961;28;20049;-75
2022/03/26 03:06:07;;;;;;;49.85;24.15;;;;;;;6.87;nan;100250.75;5073012;28;20463;-75
2022/03/26 03:08:35;;;;;;;55.67;27.23;;;;;;;6.80;nan;100255.47;5073038;28;20064;-76
2022/03/26 03:11:02;;;;;;;52.35;25.10;;;;;;;6.85;nan;100243.69;5072886;28;20051;-75
2022/03/26 03:13:31;;;;;;;59.50;26.63;;;;;;;6.72;nan;100251.28;5072635;28;20064;-75
2022/03/26 03:15:59;;;;;;;56.55;26.00;;;;;;;6.68;nan;100255.88;5072717;28;20119;-76
2022/03/26 03:18:27;;;;;;;52.08;25.42;;;;;;;6.66;nan;100258.59;5076133;28;20408;-76
2022/03/26 03:20:55;;;;;;;53.42;25.95;;;;;;;6.61;nan;100252.53;5076965;28;20072;-75
2022/03/26 03:23:22;;;;;;;50.97;24.23;;;;;;;6.70;nan;100248.66;5076976;28;20044;-76
2022/03/26 03:25:50;;;;;;;51.03;24.52;;;;;;;6.65;nan;100245.25;5077016;28;20040;-75
2022/03/26 03:28:17;;;;;;;48.70;25.50;;;;;;;6.57;nan;100248.19;5076736;28;20071;-76
2022/03/26 03:30:46;;;;;;;48.70;24.70;;;;;;;6.57;nan;100247.31;5076886;28;20103;-76
2022/03/26 03:33:14;;;;;;;47.63;23.83;;;;;;;6.80;nan;100233.97;5076790;28;20506;-75
2022/03/26 03:35:42;;;;;;;47.20;24.95;;;;;;;6.66;nan;100229.06;5076729;28;20076;-76
2022/03/26 03:38:09;;;;;;;50.00;25.73;;;;;;;6.65;nan;100234.50;5076766;28;20065;-76
2022/03/26 03:40:37;;;;;;;52.28;25.70;;;;;;;6.75;nan;100214.47;5076625;28;20036;-76
2022/03/26 03:43:05;;;;;;;52.40;25.88;;;;;;;6.66;nan;100212.97;5076240;28;20064;-76
2022/03/26 03:45:32;;;;;;;52.25;25.58;;;;;;;6.61;nan;100211.41;5076588;28;20421;-76
2022/03/26 03:48:02;;;;;;;54.35;27.65;;;;;;;6.49;nan;100220.72;5076479;28;20046;-76
2022/03/26 03:50:30;;;;;;;50.30;25.92;;;;;;;6.75;nan;100208.25;5076484;28;20074;-76
2022/03/26 03:52:57;;;;;;;50.90;25.20;;;;;;;6.56;nan;100206.16;5076325;28;20563;-76
2022/03/26 03:55:25;;;;;;;45.67;25.30;;;;;;;6.61;nan;100201.50;5076494;28;20044;-76
2022/03/26 03:57:53;;;;;;;49.47;24.50;;;;;;;6.53;nan;100206.28;5075990;28;20056;-76
2022/03/26 04:00:20;;;;;;;55.15;25.35;;;;;;;6.34;nan;100198.84;5076203;28;20127;-76
2022/03/26 04:02:48;;;;;;;48.85;26.05;;;;;;;6.44;nan;100194.03;5076224;28;20047;-76
2022/03/26 04:05:17;;;;;;;50.55;24.88;;;;;;;6.64;nan;100197.88;5076252;28;20068;-76
2022/03/26 04:07:46;;;;;;;47.13;23.70;;;;;;;6.61;nan;100189.91;5076243;28;20101;-76
2022/03/26 04:10:14;;;;;;;47.40;23.58;;;;;;;6.59;nan;100195.31;5075950;28;20123;-76
2022/03/26 04:12:44;;;;;;;51.03;24.60;;;;;;;6.65;nan;100197.78;5074767;28;20052;-76
2022/03/26 04:15:14;;;;;;;49.33;23.92;;;;;;;6.47;nan;100198.44;5074494;28;20051;-76
2022/03/26 04:17:42;;;;;;;51.28;24.42;;;;;;;6.43;nan;100191.41;5075476;28;20058;-76
2022/03/26 04:20:10;;;;;;;49.67;24.67;;;;;;;6.49;nan;100196.56;5075868;28;20093;-76
2022/03/26 04:22:40;;;;;;;47.22;25.45;;;;;;;6.53;nan;100192.84;5075705;28;20079;-76
2022/03/26 04:25:09;;;;;;;44.25;23.95;;;;;;;6.56;nan;100179.34;5075725;28;20044;-76
2022/03/26 04:27:37;;;;;;;44.38;23.55;;;;;;;6.63;nan;100186.25;5075104;28;20051;-76
2022/03/26 04:30:06;;;;;;;44.10;23.23;;;;;;;6.63;nan;100177.31;5075587;28;20134;-76
2022/03/26 04:32:34;;;;;;;47.85;23.60;;;;;;;6.64;nan;100174.56;5075593;28;20051;-76
2022/03/26 04:35:01;;;;;;;44.22;22.58;;;;;;;6.67;nan;100162.88;5075635;28;20044;-76
2022/03/26 04:37:29;;;;;;;57.80;22.88;;;;;;;6.54;nan;100172.28;5075564;28;20105;-76
2022/03/26 04:39:58;;;;;;;43.35;23.00;;;;;;;6.62;nan;100168.38;5075611;28;20533;-76
2022/03/26 04:42:26;;;;;;;53.25;25.10;;;;;;;6.75;nan;100174.19;5075033;28;20044;-75
2022/03/26 04:44:53;;;;;;;46.30;23.92;;;;;;;6.44;nan;100169.03;5075454;28;20101;-76
2022/03/26 04:47:21;;;;;;;45.30;24.52;;;;;;;6.57;nan;100173.03;5075486;28;20128;-76
2022/03/26 04:49:49;;;;;;;50.72;27.27;;;;;;;6.51;nan;100167.88;5074766;28;20064;-79
2022/03/26 04:52:16;;;;;;;45.47;24.20;;;;;;;6.72;nan;100170.72;5073306;28;20047;-75
2022/03/26 04:54:44;;;;;;;50.92;25.25;;;;;;;6.44;nan;100167.19;5072763;28;20044;-76
2022/03/26 04:57:15;;;;;;;46.67;24.75;;;;;;;6.71;nan;100171.66;5075221;28;20102;-76
2022/03/26 04:59:42;;;;;;;49.85;24.02;;;;;;;6.54;nan;100175.81;5075102;28;20059;-75
2022/03/26 05:02:10;;;;;;;42.35;23.05;;;;;;;6.64;nan;100163.81;5074531;28;20040;-76
2022/03/26 05:04:38;;;;;;;44.50;23.85;;;;;;;6.56;nan;100160.53;5075268;28;20064;-76
2022/03/26 05:07:45;;;;;;;48.83;23.98;;;;;;;6.52;nan;100156.22;5074989;28;20050;-75
2022/03/26 05:09:54;;;;;;;47.13;24.70;;;;;;;6.43;nan;100149.34;5054472;28;20040;-76
2022/03/26 05:12:23;;;;;;;47.67;25.50;;;;;;;6.60;nan;100154.13;5058280;28;20108;-76
2022/03/26 05:14:51;;;;;;;55.15;26.15;;;;;;;6.71;nan;100153.75;5072585;28;20491;-76
2022/03/26 05:17:18;;;;;;;49.60;25.27;;;;;;;6.68;nan;100153.88;5076566;28;20507;-76
2022/03/26 05:19:47;;;;;;;53.05;25.35;;;;;;;6.59;nan;100152.38;5074744;28;20055;-76
2022/03/26 05:22:14;;;;;;;47.05;24.63;;;;;;;6.62;nan;100148.72;5074854;28;20052;-77
2022/03/26 05:24:42;;;;;;;50.72;24.38;;;;;;;6.84;nan;100156.00;5072173;28;20040;-77
2022/03/26 05:27:10;;;;;;;45.33;23.73;;;;;;;6.63;nan;100147.78;5070520;28;20095;-76
2022/03/26 05:29:39;;;;;;;51.15;26.35;;;;;;;6.59;nan;100136.28;5070352;28;20485;-77
2022/03/26 05:32:07;;;;;;;46.03;24.55;;;;;;;6.79;nan;100134.72;5070118;28;20052;-76
2022/03/26 05:34:35;;;;;;;50.30;23.95;;;;;;;6.77;nan;100139.25;5070937;28;20068;-76
2022/03/26 05:37:04;;;;;;;55.50;24.27;;;;;;;6.73;nan;100135.78;5070722;28;20044;-76
2022/03/26 05:39:32;;;;;;;44.83;22.77;;;;;;;6.89;nan;100125.38;5068094;28;20753;-76
2022/03/26 05:42:00;;;;;;;47.08;23.73;;;;;;;6.84;nan;100118.41;5070302;28;20092;-78
2022/03/26 05:44:27;;;;;;;46.88;24.33;;;;;;;6.80;nan;100106.94;5070846;28;20048;-76
2022/03/26 05:46:56;;;;;;;47.65;24.45;;;;;;;6.89;nan;100114.63;5070768;28;20072;-76
2022/03/26 05:49:24;;;;;;;50.95;24.30;;;;;;;6.95;nan;100108.19;5069859;28;20048;-77
2022/03/26 05:51:52;;;;;;;47.15;23.55;;;;;;;7.04;nan;100101.56;5070161;28;20668;-76
2022/03/26 05:54:19;;;;;;;51.17;23.67;;;;;;;7.10;nan;100095.94;5069871;28;20152;-76
2022/03/26 05:56:51;;;;;;;45.20;23.60;;;;;;;7.11;nan;100097.69;5070512;28;20419;-78
2022/03/26 05:59:21;;;;;;;46.00;23.38;;;;;;;7.29;nan;100089.88;5071019;28;20048;-77
2022/03/26 06:01:49;;;;;;;46.75;23.40;;;;;;;7.37;nan;100090.47;5070618;28;20051;-76
2022/03/26 06:04:18;;;;;;;48.88;22.02;;;;;;;7.44;nan;100083.03;5070424;28;20048;-78
2022/03/26 06:06:47;;;;;;;46.45;22.85;;;;;;;7.37;nan;100082.41;5069113;28;20158;-79
2022/03/26 06:09:14;;;;;;;47.25;22.52;;;;;;;7.58;nan;100083.34;5069299;28;20072;-80
2022/03/26 06:11:42;;;;;;;45.70;22.50;;;;;;;7.58;nan;100080.66;5069337;28;20051;-78
2022/03/26 06:14:10;;;;;;;44.55;23.52;;;;;;;7.57;nan;100089.66;5058095;28;20513;-74
2022/03/26 06:16:37;;;;;;;47.17;23.00;;;;;;;7.65;nan;100092.06;5069801;28;20048;-76
2022/03/26 06:19:05;;;;;;;48.25;24.10;;;;;;;7.61;nan;100085.06;5069438;28;20129;-77
2022/03/26 06:21:34;;;;;;;48.90;22.45;;;;;;;7.72;nan;100074.75;5069444;28;20055;-77
2022/03/26 06:24:02;;;;;;;47.83;22.65;;;;;;;7.71;nan;100075.69;5069025;28;20036;-77
2022/03/26 06:26:30;;;;;;;44.28;21.25;;;;;;;7.87;nan;100070.56;5069620;28;20110;-77
2022/03/26 06:28:58;;;;;;;42.72;22.17;;;;;;;7.97;nan;100062.97;5069566;28;20166;-78
2022/03/26 06:31:26;;;;;;;50.10;21.55;;;;;;;8.10;nan;100074.06;5067959;28;20044;-76
2022/03/26 06:33:53;;;;;;;46.88;22.33;;;;;;;8.07;nan;100077.78;5069781;28;20135;-79
2022/03/26 06:36:22;;;;;;;44.20;20.50;;;;;;;7.99;nan;100074.56;5058790;28;20041;-77
2022/03/26 06:38:51;;;;;;;44.05;22.60;;;;;;;8.21;nan;100070.94;5049878;28;20045;-76
2022/03/26 06:41:18;;;;;;;43.10;20.77;;;;;;;8.24;nan;100057.34;5051006;28;20130;-77
2022/03/26 06:43:46;;;;;;;40.90;20.98;;;;;;;8.23;nan;100063.66;5069400;28;20419;-76
2022/03/26 06:46:14;;;;;;;45.00;22.20;;;;;;;8.19;nan;100052.19;5069251;28;21005;-77
2022/03/26 06:48:42;;;;;;;39.08;21.92;;;;;;;8.20;nan;100061.09;5069881;28;20131;-77
2022/03/26 06:51:10;;;;;;;43.67;21.10;;;;;;;8.15;nan;100063.13;5069207;28;20071;-76
2022/03/26 06:53:38;;;;;;;42.78;21.25;;;;;;;8.21;nan;100068.25;5068223;28;20063;-77
2022/03/26 06:56:08;;;;;;;50.00;21.85;;;;;;;8.29;nan;100074.16;5069392;28;20129;-76
2022/03/26 06:58:36;;;;;;;45.75;21.77;;;;;;;8.34;nan;100061.38;5070702;28;20067;-76
2022/03/26 07:01:04;;;;;;;43.20;22.10;;;;;;;8.23;nan;100058.28;5069323;28;20109;-76
2022/03/26 07:03:32;;;;;;;44.20;22.48;;;;;;;8.33;nan;100056.94;5068981;28;20126;-77
2022/03/26 07:06:00;;;;;;;45.80;22.23;;;;;;;8.40;nan;100052.16;5068254;28;20044;-76
2022/03/26 07:08:27;;;;;;;41.25;21.77;;;;;;;8.43;nan;100056.56;5069353;28;20112;-76
2022/03/26 07:10:55;;;;;;;44.05;22.63;;;;;;;8.56;nan;100049.72;5060447;28;20049;-75
2022/03/26 07:13:24;;;;;;;42.95;21.67;;;;;;;8.57;nan;100038.00;5049092;28;20059;-77
2022/03/26 07:15:52;;;;;;;49.70;22.58;;;;;;;8.58;nan;100049.66;5063318;28;20048;-76
2022/03/26 07:18:19;;;;;;;43.33;22.27;;;;;;;8.73;nan;100039.97;5068391;28;20109;-76
2022/03/26 07:20:47;;;;;;;41.65;21.40;;;;;;;8.81;nan;100035.13;5068098;28;20040;-76
2022/03/26 07:23:15;;;;;;;41.20;22.58;;;;;;;8.84;nan;100035.00;5068353;28;20101;-76
2022/03/26 07:25:43;;;;;;;41.55;21.27;;;;;;;8.90;nan;100031.13;5068657;28;20041;-77
2022/03/26 07:28:11;;;;;;;42.05;21.33;;;;;;;8.98;nan;100019.06;5061619;28;20051;-77
2022/03/26 07:30:40;;;;;;;42.60;20.42;;;;;;;9.06;nan;100020.50;5050848;28;20044;-74
2022/03/26 07:33:08;;;;;;;40.72;21.80;;;;;;;9.10;nan;100019.41;5063836;28;20052;-76
2022/03/26 07:35:36;;;;;;;47.50;20.80;;;;;;;9.17;nan;100020.00;5068777;28;20078;-76
2022/03/26 07:38:04;;;;;;;44.10;20.48;;;;;;;9.24;nan;100018.75;5068366;28;20044;-76
2022/03/26 07:40:31;;;;;;;34.72;17.77;;;;;;;9.25;nan;100009.72;5064670;28;20041;-75
2022/03/26 07:42:59;;;;;;;35.63;17.55;;;;;;;9.19;nan;100004.63;5059352;28;20105;-77
2022/03/26 07:45:27;;;;;;;36.35;18.63;;;;;;;9.33;nan;100017.44;5058700;28;20058;-76
2022/03/26 07:47:57;;;;;;;46.15;18.05;;;;;;;9.35;nan;100011.03;5056571;28;20131;-78
2022/03/26 07:50:24;;;;;;;40.00;17.63;;;;;;;9.27;nan;100013.22;5056170;28;20052;-81
2022/03/26 07:52:52;;;;;;;37.63;18.15;;;;;;;9.41;nan;100007.16;5059750;28;20389;-77
2022/03/26 07:55:20;;;;;;;36.65;17.88;;;;;;;9.45;nan;99999.81;5057985;28;20041;-77
2022/03/26 07:57:48;;;;;;;34.60;16.90;;;;;;;9.63;nan;99998.03;5061544;28;20127;-76
2022/03/26 08:00:17;;;;;;;39.13;16.48;;;;;;;9.66;nan;100003.25;5053908;28;20045;-80
2022/03/26 08:02:45;;;;;;;39.63;17.13;;;;;;;9.75;nan;100000.09;5054851;28;20049;-81
2022/03/26 08:05:14;;;;;;;43.80;18.90;;;;;;;9.65;nan;99996.97;5064638;28;20056;-76
2022/03/26 08:07:42;;;;;;;36.40;17.10;;;;;;;9.71;nan;100001.22;5060400;28;20051;-76
2022/03/26 08:10:10;;;;;;;36.85;17.95;;;;;;;9.73;nan;99993.03;5065190;28;20048;-77
2022/03/26 08:12:38;;;;;;;41.33;16.70;;;;;;;9.80;nan;99976.47;5057604;28;20048;-80
2022/03/26 08:15:07;;;;;;;31.60;16.17;;;;;;;9.81;nan;99980.03;5066487;28;20067;-76
2022/03/26 08:17:35;;;;;;;30.40;15.93;;;;;;;9.87;nan;99979.72;5059345;28;20068;-78
2022/03/26 08:20:03;;;;;;;35.65;16.63;;;;;;;9.93;nan;99965.03;5065752;28;20506;-77
2022/03/26 08:22:34;;;;;;;32.75;16.65;;;;;;;10.02;nan;99974.47;5063533;28;20067;-77
2022/03/26 08:25:02;;;;;;;32.30;15.13;;;;;;;10.00;nan;99963.78;5069002;28;20123;-77
2022/03/26 08:27:30;;;;;;;40.45;15.32;;;;;;;10.03;nan;99957.34;5054112;28;20416;-77
2022/03/26 08:29:58;;;;;;;31.02;14.50;;;;;;;10.19;nan;99968.19;5062304;28;20276;-79
2022/03/26 08:32:25;;;;;;;30.00;15.43;;;;;;;10.29;nan;99967.63;5058041;28;20048;-77
2022/03/26 08:34:53;;;;;;;37.60;16.20;;;;;;;10.31;nan;99963.97;5054864;28;20411;-77
2022/03/26 08:37:21;;;;;;;33.53;14.02;;;;;;;10.50;nan;99962.06;5064980;28;20047;-77
2022/03/26 08:39:50;;;;;;;32.22;11.45;;;;;;;10.48;nan;99961.28;5068836;28;20098;-77
2022/03/26 08:42:18;;;;;;;28.10;11.20;;;;;;;10.50;nan;99945.00;5069213;28;20142;-77
2022/03/26 08:44:46;;;;;;;24.70;11.57;;;;;;;10.56;nan;99950.06;5070960;28;20526;-76
2022/03/26 08:47:13;;;;;;;22.48;11.02;;;;;;;10.65;nan;99954.94;5068160;28;20125;-76
2022/03/26 08:49:44;;;;;;;30.15;11.10;;;;;;;10.58;nan;99953.53;5065549;28;20053;-77
2022/03/26 08:52:12;;;;;;;23.15;11.43;;;;;;;10.64;nan;99955.06;5067293;28;20052;-76
2022/03/26 08:54:40;;;;;;;26.42;11.40;;;;;;;10.61;nan;99955.22;5061024;28;20157;-77
2022/03/26 08:57:09;;;;;;;23.30;12.15;;;;;;;10.66;nan;99947.72;5058348;28;20044;-76
2022/03/26 08:59:37;;;;;;;27.88;11.50;;;;;;;10.69;nan;99955.66;5052015;28;20049;-76
2022/03/26 09:02:05;;;;;;;24.13;12.20;;;;;;;10.92;nan;99954.38;5062398;28;20609;-77
2022/03/26 09:04:32;;;;;;;22.70;11.30;;;;;;;10.82;nan;99961.28;5059290;28;20388;-77
2022/03/26 09:07:00;;;;;;;22.95;11.43;;;;;;;10.73;nan;99944.59;5064846;28;20060;-78
2022/03/26 09:09:28;;;;;;;26.52;12.75;;;;;;;10.81;nan;99937.88;5066313;28;20143;-80
2022/03/26 09:11:55;;;;;;;27.20;12.73;;;;;;;10.79;nan;99951.50;5069153;28;20507;-80
2022/03/26 09:14:26;;;;;;;25.95;13.05;;;;;;;10.70;nan;99944.75;5061918;28;20076;-76
2022/03/26 09:16:54;;;;;;;27.05;13.30;;;;;;;10.69;nan;99948.41;5067569;28;20052;-75
2022/03/26 09:19:22;;;;;;;27.63;13.23;;;;;;;10.73;nan;99955.41;5071810;28;20071;-75
2022/03/26 09:21:49;;;;;;;26.27;14.05;;;;;;;10.89;nan;99951.84;5062399;28;20127;-75
2022/03/26 09:24:17;;;;;;;24.63;12.40;;;;;;;10.79;nan;99962.31;5065314;28;20041;-75
2022/03/26 09:26:45;;;;;;;35.05;12.90;;;;;;;10.87;nan;99949.22;5064293;28;20048;-75
2022/03/26 09:29:13;;;;;;;27.02;12.82;;;;;;;10.94;nan;99949.75;5057851;28;20052;-77
2022/03/26 09:31:42;;;;;;;25.38;12.48;;;;;;;10.87;nan;99951.94;5069087;28;20064;-73
2022/03/26 09:34:10;;;;;;;26.15;13.93;;;;;;;10.79;nan;99953.31;5060954;28;20440;-78
2022/03/26 09:36:37;;;;;;;29.45;12.38;;;;;;;10.76;nan;99948.97;5058676;28;20045;-75
2022/03/26 09:39:05;;;;;;;28.42;13.38;;;;;;;10.69;nan;99943.00;5063505;28;20054;-77
2022/03/26 09:41:33;;;;;;;24.17;12.27;;;;;;;10.70;nan;99946.59;5050991;28;20620;-77
2022/03/26 09:44:01;;;;;;;27.40;13.88;;;;;;;10.69;nan;99950.25;5063659;28;20055;-77
2022/03/26 09:46:29;;;;;;;30.52;13.77;;;;;;;10.76;nan;99950.78;5057736;28;20044;-77
2022/03/26 09:48:58;;;;;;;30.75;12.80;;;;;;;10.75;nan;99946.34;5062506;28;20119;-76
2022/03/26 09:51:25;;;;;;;26.10;13.05;;;;;;;10.83;nan;99938.69;5052949;28;20055;-77
2022/03/26 09:53:54;;;;;;;27.00;14.10;;;;;;;10.81;nan;99937.88;5064731;28;20374;-77
2022/03/26 09:56:23;;;;;;;34.88;14.40;;;;;;;10.81;nan;99932.47;5057469;28;20139;-77
2022/03/26 09:58:52;;;;;;;36.13;17.02;;;;;;;10.78;nan;99932.66;5058884;28;20063;-77
2022/03/26 10:01:20;;;;;;;31.88;14.88;;;;;;;10.79;nan;99931.69;5068195;28;20052;-77
2022/03/26 10:04:10;;;;;;;35.42;16.65;;;;;;;10.75;nan;99925.59;5056345;28;20044;-76
2022/03/26 10:06:38;;;;;;;37.17;16.73;;;;;;;10.67;nan;99928.72;5062269;28;20094;-76
2022/03/26 10:09:06;;;;;;;28.90;14.95;;;;;;;10.66;nan;99926.97;5066116;28;20076;-77
2022/03/26 10:11:34;;;;;;;29.83;15.07;;;;;;;10.60;nan;99924.63;5063976;28;20497;-76
2022/03/26 10:14:01;;;;;;;27.25;14.25;;;;;;;10.61;nan;99931.78;5057529;28;20044;-76
2022/03/26 10:16:29;;;;;;;37.17;15.40;;;;;;;10.67;nan;99925.16;5066188;28;20041;-75
2022/03/26 10:19:00;;;;;;;29.45;13.60;;;;;;;10.64;nan;99928.91;5067000;28;20060;-76
2022/03/26 10:21:29;;;;;;;24.85;13.13;;;;;;;10.61;nan;99936.31;5061350;28;20051;-76
2022/03/26 10:23:57;;;;;;;26.88;13.27;;;;;;;10.58;nan;99934.63;5063195;28;20102;-75
2022/03/26 10:26:28;;;;;;;26.38;13.25;;;;;;;10.61;nan;99923.66;5060033;28;20055;-76
2022/03/26 10:28:57;;;;;;;25.58;14.07;;;;;;;10.61;nan;99922.81;5051272;28;20046;-76
2022/03/26 10:34:12;;;;;;;27.25;12.65;;;;;;;10.74;nan;99913.06;5055739;28;20137;-77
2022/03/26 10:36:42;;;;;;;23.33;10.13;;;;;;;10.76;nan;99913.84;5063639;28;20072;-76
2022/03/26 10:39:15;;;;;;;27.27;11.50;;;;;;;10.73;nan;99922.13;5071020;28;20126;-75
2022/03/26 10:41:44;;;;;;;25.52;10.82;;;;;;;10.72;nan;99923.94;5070791;28;20125;-76
2022/03/26 10:44:13;;;;;;;26.52;12.27;;;;;;;10.78;nan;99909.22;5072767;28;20044;-76
2022/03/26 10:46:48;;;;;;;27.25;12.20;;;;;;;10.76;nan;99926.47;5065663;28;20051;-76
2022/03/26 10:49:26;;;;;;;25.77;12.67;;;;;;;10.82;nan;99927.00;5069033;28;20040;-75
2022/03/26 10:51:56;;;;;;;25.60;12.82;;;;;;;10.71;nan;99919.50;5069326;28;20047;-75
2022/03/26 10:54:31;;;;;;;26.20;13.30;;;;;;;10.75;nan;99917.50;5067000;28;20048;-77
2022/03/26 10:56:59;;;;;;;25.27;13.75;;;;;;;10.77;nan;99923.69;5067848;28;20127;-77
2022/03/26 10:59:28;;;;;;;28.65;14.38;;;;;;;10.74;nan;99931.97;5065992;28;20052;-76
2022/03/26 11:01:55;;;;;;;27.17;13.70;;;;;;;10.76;nan;99931.88;5067859;28;20493;-76
2022/03/26 11:04:23;;;;;;;28.08;15.40;;;;;;;10.76;nan;99923.75;5075471;28;20044;-77
2022/03/26 11:06:51;;;;;;;28.67;15.80;;;;;;;10.69;nan;99931.34;5070884;28;20059;-77
2022/03/26 11:09:21;;;;;;;29.80;16.85;;;;;;;10.61;nan;99939.88;5065230;28;20068;-77
2022/03/26 11:11:50;;;;;;;30.00;18.40;;;;;;;10.55;nan;99940.22;5061800;28;20052;-77
2022/03/26 11:14:21;;;;;;;36.72;17.33;;;;;;;10.57;nan;99941.84;5055545;28;20044;-76
2022/03/26 11:17:02;;;;;;;29.70;17.75;;;;;;;10.49;nan;99946.81;5065617;28;20136;-77
2022/03/26 11:19:39;;;;;;;32.83;17.88;;;;;;;10.49;nan;99959.47;5063148;28;20044;-77
2022/03/26 11:22:30;;;;;;;32.28;17.88;;;;;;;10.53;nan;99947.53;5056243;28;20094;-76
2022/03/26 11:25:23;;;;;;;31.08;19.30;;;;;;;10.49;nan;99940.56;5054392;28;20044;-76
2022/03/26 11:28:04;;;;;;;39.25;18.55;;;;;;;10.45;nan;99949.78;5060749;28;20052;-76
2022/03/26 11:30:39;;;;;;;32.92;18.08;;;;;;;10.37;nan;99953.72;5066948;28;20044;-76
2022/03/26 11:33:11;;;;;;;38.05;18.73;;;;;;;10.34;nan;99953.88;5064605;28;20044;-77
2022/03/26 11:35:52;;;;;;;30.95;18.13;;;;;;;10.24;nan;99953.53;5063238;28;20051;-76
2022/03/26 11:38:19;;;;;;;35.08;19.08;;;;;;;10.29;nan;99945.16;5058105;28;20090;-76
2022/03/26 11:40:53;;;;;;;34.38;21.15;;;;;;;10.29;nan;99946.03;5058013;28;20380;-76
2022/03/26 11:43:58;;;;;;;39.25;21.08;;;;;;;10.26;nan;99939.91;5055711;28;20044;-76